Time;durP1;ratioP1;P1;durP2;ratioP2;P2;SDS_P1;SDS_P2;PMS_P1;PMS_P2;Temp;Humidity;BMP_temperature;BMP_pressure;BME280_temperature;BME280_humidity;BME280_pressure;Samples;Min_cycle;Max_cycle;Signal;HPM_P1;HPM_P2
2022/05/11 00:45:26;;;;;;;8.23;3.97;;;14.00;99.90;;;;;;2010200;28;23232;-46
2022/05/11 00:47:57;;;;;;;7.57;3.83;;;13.90;99.90;;;;;;4970828;28;20145;-48
2022/05/11 00:50:29;;;;;;;7.88;3.85;;;13.90;99.90;;;;;;4972811;28;20082;-47
2022/05/11 00:53:10;;;;;;;6.75;3.85;;;13.90;99.90;;;;;;4973212;28;20038;-49
2022/05/11 00:55:43;;;;;;;7.25;4.03;;;14.00;99.90;;;;;;4972944;28;20130;-48
2022/05/11 00:58:23;;;;;;;10.07;4.50;;;13.90;99.90;;;;;;4954167;28;20047;-49
2022/05/11 01:00:49;;;;;;;8.50;4.10;;;13.90;99.90;;;;;;4972711;28;20118;-50
2022/05/11 01:03:19;;;;;;;10.07;3.85;;;13.80;99.90;;;;;;4971369;28;20150;-49
2022/05/11 01:05:46;;;;;;;9.60;4.30;;;13.90;99.90;;;;;;4972944;28;20039;-50
2022/05/11 01:08:13;;;;;;;10.50;4.90;;;13.80;99.90;;;;;;4973347;28;20121;-50
2022/05/11 01:10:41;;;;;;;9.93;4.75;;;13.90;99.90;;;;;;4973445;28;20039;-49
2022/05/11 01:13:10;;;;;;;9.65;4.53;;;13.80;99.90;;;;;;4969627;28;20039;-49
2022/05/11 01:15:37;;;;;;;9.40;4.32;;;13.90;99.90;;;;;;4969118;28;20458;-49
2022/05/11 01:18:05;;;;;;;8.15;4.70;;;13.80;99.90;;;;;;4972799;28;20035;-49
2022/05/11 01:20:33;;;;;;;9.68;4.97;;;13.80;99.90;;;;;;4955627;28;20414;-47
2022/05/11 01:23:04;;;;;;;10.95;4.95;;;13.80;99.90;;;;;;4972590;28;20092;-50
2022/05/11 01:25:31;;;;;;;8.25;4.78;;;13.80;99.90;;;;;;4972667;28;20113;-50
2022/05/11 01:28:22;;;;;;;9.52;4.68;;;13.80;99.90;;;;;;4972557;28;20038;-51
2022/05/11 01:30:52;;;;;;;12.10;4.97;;;13.90;99.90;;;;;;4968169;28;20051;-51
2022/05/11 01:33:22;;;;;;;9.13;4.72;;;13.90;99.90;;;;;;4972629;28;20043;-51
2022/05/11 01:36:06;;;;;;;9.57;4.88;;;13.90;99.90;;;;;;4972740;28;20035;-49
2022/05/11 01:38:43;;;;;;;9.25;4.80;;;13.90;99.90;;;;;;4971369;28;20494;-51
2022/05/11 01:41:29;;;;;;;12.13;4.82;;;13.90;99.90;;;;;;4972927;28;20114;-50
2022/05/11 01:43:55;;;;;;;10.77;5.22;;;13.90;99.90;;;;;;4971726;28;20156;-50
2022/05/11 01:46:23;;;;;;;11.15;5.00;;;13.90;99.90;;;;;;4972434;28;20047;-49
2022/05/11 01:48:49;;;;;;;9.82;4.57;;;13.90;99.90;;;;;;4972604;28;20085;-49
2022/05/11 01:51:17;;;;;;;8.40;4.15;;;13.90;99.90;;;;;;4972353;28;20047;-50
2022/05/11 01:53:44;;;;;;;8.25;4.65;;;13.80;99.90;;;;;;4972301;28;20105;-49
2022/05/11 01:56:12;;;;;;;8.20;4.28;;;13.80;99.90;;;;;;4972390;28;20043;-50
2022/05/11 01:58:38;;;;;;;8.95;4.40;;;13.80;99.90;;;;;;4972058;28;20105;-50
2022/05/11 02:01:04;;;;;;;9.95;4.53;;;13.80;99.90;;;;;;4972034;28;20051;-47
2022/05/11 02:03:30;;;;;;;8.60;4.28;;;13.80;99.90;;;;;;4971413;28;20046;-48
2022/05/11 02:08:43;;;;;;;6.65;3.95;;;13.70;99.90;;;;;;4972286;28;20049;-49
2022/05/11 02:11:09;;;;;;;8.90;4.28;;;13.80;99.90;;;;;;4972269;28;20406;-48
2022/05/11 02:13:35;;;;;;;8.73;4.30;;;13.70;99.90;;;;;;4971792;28;20113;-50
2022/05/11 02:16:01;;;;;;;8.68;3.25;;;13.70;99.90;;;;;;4971992;28;20471;-47
2022/05/11 02:18:28;;;;;;;7.82;3.72;;;13.70;99.90;;;;;;4972473;28;20066;-51
2022/05/11 02:20:53;;;;;;;12.15;3.65;;;13.70;99.90;;;;;;4972153;28;20133;-48
2022/05/11 02:23:21;;;;;;;8.35;3.80;;;13.80;99.90;;;;;;4972031;28;20471;-48
2022/05/11 02:25:48;;;;;;;7.97;3.50;;;13.70;99.90;;;;;;4972026;28;20140;-48
2022/05/11 02:28:15;;;;;;;11.32;3.72;;;13.70;99.90;;;;;;4971983;28;20039;-48
2022/05/11 02:30:43;;;;;;;7.45;3.42;;;13.70;99.90;;;;;;4971835;28;20038;-48
2022/05/11 02:33:09;;;;;;;6.70;3.63;;;13.70;99.90;;;;;;4971842;28;20078;-49
2022/05/11 02:35:36;;;;;;;10.18;3.70;;;13.60;99.90;;;;;;4971965;28;20085;-47
2022/05/11 02:38:06;;;;;;;8.68;3.72;;;13.70;99.90;;;;;;4971990;28;20042;-50
2022/05/11 02:40:35;;;;;;;7.38;3.15;;;13.70;99.90;;;;;;4972054;28;20759;-50
2022/05/11 02:43:03;;;;;;;8.45;3.50;;;13.70;99.90;;;;;;4971255;28;20043;-49
2022/05/11 02:45:31;;;;;;;7.90;3.80;;;13.70;99.90;;;;;;4971880;28;20487;-48
2022/05/11 02:47:58;;;;;;;9.05;3.28;;;13.70;99.90;;;;;;4971655;28;20058;-47
2022/05/11 02:50:33;;;;;;;7.15;3.40;;;13.70;99.90;;;;;;4971745;28;20505;-49
2022/05/11 02:52:59;;;;;;;10.05;3.70;;;13.60;99.90;;;;;;4971732;28;20042;-49
2022/05/11 02:55:25;;;;;;;9.70;3.20;;;13.60;99.90;;;;;;4972027;28;20046;-49
2022/05/11 02:57:51;;;;;;;8.32;3.60;;;13.60;99.90;;;;;;4977638;28;20519;-47
2022/05/11 03:00:18;;;;;;;9.82;3.50;;;13.60;99.90;;;;;;4978257;28;20062;-51
2022/05/11 03:02:45;;;;;;;7.75;3.78;;;13.60;99.90;;;;;;4978295;28;20483;-49
2022/05/11 03:05:12;;;;;;;8.40;3.17;;;13.60;99.90;;;;;;4978118;28;20066;-49
2022/05/11 03:07:39;;;;;;;8.15;3.35;;;13.60;99.90;;;;;;4978038;28;20042;-48
2022/05/11 03:10:06;;;;;;;7.95;3.60;;;13.60;99.90;;;;;;4977897;28;20113;-50
2022/05/11 03:12:32;;;;;;;10.20;4.03;;;13.60;99.90;;;;;;4977622;28;20471;-52
2022/05/11 03:14:59;;;;;;;7.93;3.10;;;13.60;99.90;;;;;;4960586;28;20049;-46
2022/05/11 03:17:25;;;;;;;8.48;3.35;;;13.60;99.90;;;;;;4978046;28;20061;-48
2022/05/11 03:19:51;;;;;;;7.40;3.85;;;13.60;99.90;;;;;;4978137;28;20113;-48
2022/05/11 03:22:17;;;;;;;9.30;4.03;;;13.60;99.90;;;;;;4977754;28;20038;-49
2022/05/11 03:24:43;;;;;;;9.20;3.30;;;13.60;99.90;;;;;;4960501;28;20407;-50
2022/05/11 03:27:09;;;;;;;8.07;3.78;;;13.60;99.90;;;;;;4960286;28;20078;-47
2022/05/11 03:29:35;;;;;;;8.38;3.42;;;13.60;99.90;;;;;;4977955;28;20070;-49
2022/05/11 03:34:46;;;;;;;11.50;4.68;;;13.60;99.90;;;;;;4978030;28;20562;-49
2022/05/11 03:37:15;;;;;;;9.82;4.05;;;13.60;99.90;;;;;;4977642;28;20372;-51
2022/05/11 03:39:41;;;;;;;10.57;4.20;;;13.60;99.90;;;;;;4960221;28;20043;-46
2022/05/11 03:42:12;;;;;;;11.07;4.40;;;13.60;99.90;;;;;;4960531;28;20057;-47
2022/05/11 03:44:38;;;;;;;12.20;4.80;;;13.50;99.90;;;;;;4977772;28;20105;-48
2022/05/11 03:47:04;;;;;;;9.10;4.60;;;13.60;99.90;;;;;;4977512;28;20054;-49
2022/05/11 03:49:29;;;;;;;9.55;4.07;;;13.60;99.90;;;;;;4978043;28;20055;-51
2022/05/11 03:51:55;;;;;;;10.15;4.30;;;13.60;99.90;;;;;;4977360;28;20109;-49
2022/05/11 03:54:21;;;;;;;10.82;4.88;;;13.60;99.90;;;;;;4977611;28;20031;-49
2022/05/11 03:56:47;;;;;;;11.23;4.90;;;13.60;99.90;;;;;;4960340;28;20078;-48
2022/05/11 03:59:13;;;;;;;11.60;4.70;;;13.50;99.90;;;;;;4977567;28;20141;-47
2022/05/11 04:01:39;;;;;;;14.70;5.03;;;13.60;99.90;;;;;;4977637;28;20142;-50
2022/05/11 04:04:05;;;;;;;17.95;5.28;;;13.60;99.90;;;;;;4977430;28;20043;-52
2022/05/11 04:06:31;;;;;;;10.75;5.20;;;13.50;99.90;;;;;;4977438;28;20042;-46
2022/05/11 04:08:57;;;;;;;10.85;4.90;;;13.50;99.90;;;;;;4973287;28;20479;-46
2022/05/11 04:11:23;;;;;;;11.57;4.70;;;13.50;99.90;;;;;;4974407;28;20041;-51
2022/05/11 04:13:50;;;;;;;13.25;5.35;;;13.50;99.90;;;;;;4956617;28;20165;-51
2022/05/11 04:16:16;;;;;;;12.80;5.32;;;13.50;99.90;;;;;;4974479;28;20498;-49
2022/05/11 04:18:42;;;;;;;14.82;5.07;;;13.50;99.90;;;;;;4974184;28;20106;-48
2022/05/11 04:21:09;;;;;;;7.80;4.80;;;13.50;99.90;;;;;;4973901;28;20403;-51
2022/05/11 04:23:35;;;;;;;13.98;4.78;;;13.60;99.90;;;;;;4974360;28;20041;-49
2022/05/11 04:26:00;;;;;;;12.07;5.05;;;13.50;99.90;;;;;;4974060;28;20557;-48
2022/05/11 04:28:26;;;;;;;10.15;5.00;;;13.60;99.90;;;;;;4974283;28;20039;-49
2022/05/11 04:31:00;;;;;;;10.88;5.53;;;13.60;99.90;;;;;;4973883;28;20035;-49
2022/05/11 04:33:26;;;;;;;11.10;5.10;;;13.50;99.90;;;;;;4955692;28;20531;-49
2022/05/11 04:35:51;;;;;;;11.07;5.05;;;13.50;99.90;;;;;;4974059;28;20130;-48
2022/05/11 04:38:17;;;;;;;12.38;4.95;;;13.50;99.90;;;;;;4974274;28;20049;-51
2022/05/11 04:40:43;;;;;;;11.18;4.93;;;13.50;99.90;;;;;;4974308;28;20042;-50
2022/05/11 04:43:10;;;;;;;11.10;5.40;;;13.60;99.90;;;;;;4973723;28;20046;-51
2022/05/11 04:45:40;;;;;;;9.63;5.10;;;13.60;99.90;;;;;;4973994;28;20042;-48
2022/05/11 04:48:07;;;;;;;8.63;5.30;;;13.50;99.90;;;;;;4973519;28;20133;-46
2022/05/11 04:50:33;;;;;;;15.98;5.03;;;13.50;99.90;;;;;;4973865;28;20046;-49
2022/05/11 04:52:59;;;;;;;11.65;5.22;;;13.60;99.90;;;;;;4973951;28;20050;-48
2022/05/11 04:55:25;;;;;;;15.48;5.70;;;13.60;99.90;;;;;;4973691;28;20172;-48
2022/05/11 04:57:50;;;;;;;12.20;5.95;;;13.60;99.90;;;;;;4973454;28;20030;-49
2022/05/11 05:00:16;;;;;;;10.10;5.47;;;13.60;99.90;;;;;;4973707;28;20035;-47
2022/05/11 05:02:42;;;;;;;12.18;5.30;;;13.60;99.90;;;;;;4973324;28;20050;-49
2022/05/11 05:05:10;;;;;;;10.13;5.07;;;13.70;99.90;;;;;;4973413;28;20039;-48
2022/05/11 05:07:36;;;;;;;9.57;5.22;;;13.60;99.90;;;;;;4973542;28;20054;-48
2022/05/11 05:10:07;;;;;;;12.57;5.72;;;13.70;99.90;;;;;;4973301;28;20035;-47
2022/05/11 05:12:33;;;;;;;11.85;6.03;;;13.70;99.90;;;;;;4972825;28;20045;-47
2022/05/11 05:14:59;;;;;;;12.15;5.85;;;13.70;99.90;;;;;;4972949;28;20079;-50
2022/05/11 05:17:25;;;;;;;9.75;5.40;;;13.80;99.90;;;;;;4973696;28;20043;-51
2022/05/11 05:19:51;;;;;;;12.90;5.60;;;13.80;99.90;;;;;;4973218;28;20390;-50
2022/05/11 05:22:18;;;;;;;13.13;5.40;;;13.80;99.90;;;;;;4955486;28;20043;-46
2022/05/11 05:24:44;;;;;;;12.85;5.95;;;13.80;99.90;;;;;;4972764;28;20039;-48
2022/05/11 05:27:15;;;;;;;30.88;7.30;;;13.90;99.90;;;;;;4973233;28;20050;-49
2022/05/11 05:32:26;;;;;;;15.10;5.55;;;14.00;99.90;;;;;;4973121;28;20139;-48
2022/05/11 05:34:51;;;;;;;10.32;5.63;;;14.10;99.90;;;;;;4973104;28;20051;-48
2022/05/11 05:37:18;;;;;;;11.05;5.53;;;14.10;99.90;;;;;;4972803;28;20027;-51
2022/05/11 05:39:45;;;;;;;10.50;5.03;;;14.20;99.90;;;;;;4973176;28;20034;-50
2022/05/11 05:42:23;;;;;;;11.20;5.40;;;14.20;99.90;;;;;;4972987;28;20042;-49
2022/05/11 05:44:49;;;;;;;10.30;5.05;;;14.20;99.90;;;;;;4955102;28;20035;-48
2022/05/11 05:47:16;;;;;;;9.23;4.97;;;14.20;99.90;;;;;;4972430;28;20066;-50
2022/05/11 05:49:42;;;;;;;10.77;4.78;;;14.20;99.90;;;;;;4972894;28;20427;-48
2022/05/11 05:52:13;;;;;;;9.05;4.07;;;14.20;99.90;;;;;;4972664;28;20481;-50
2022/05/11 05:54:39;;;;;;;10.10;4.65;;;14.20;99.90;;;;;;4973085;28;20042;-49
2022/05/11 05:57:05;;;;;;;11.65;4.65;;;14.20;99.90;;;;;;4972294;28;20126;-47
2022/05/11 05:59:31;;;;;;;8.70;4.15;;;14.30;99.90;;;;;;4972492;28;20113;-49
2022/05/11 06:01:57;;;;;;;10.48;4.15;;;14.40;99.90;;;;;;4972382;28;20049;-50
2022/05/11 06:04:23;;;;;;;10.52;4.68;;;14.40;99.90;;;;;;4972563;28;20124;-49
2022/05/11 06:06:49;;;;;;;11.38;4.30;;;14.50;99.90;;;;;;4972299;28;20476;-49
2022/05/11 06:09:14;;;;;;;9.75;4.20;;;14.50;99.90;;;;;;4972276;28;20066;-47
2022/05/11 06:11:40;;;;;;;8.82;3.80;;;14.50;99.90;;;;;;4972078;28;20046;-50
2022/05/11 06:14:06;;;;;;;9.43;3.95;;;14.60;99.90;;;;;;4971393;28;20046;-48
2022/05/11 06:16:32;;;;;;;7.78;3.28;;;14.60;99.90;;;;;;4972290;28;20501;-48
2022/05/11 06:18:58;;;;;;;9.98;3.47;;;14.70;99.90;;;;;;4972232;28;20042;-48
2022/05/11 06:21:25;;;;;;;9.50;3.40;;;14.70;99.90;;;;;;4970673;28;20101;-48
2022/05/11 06:23:51;;;;;;;9.35;3.30;;;14.80;99.90;;;;;;4972076;28;20491;-52
2022/05/11 06:26:17;;;;;;;7.78;3.03;;;14.80;99.90;;;;;;4971905;28;20038;-47
2022/05/11 06:28:45;;;;;;;12.18;2.78;;;14.90;99.90;;;;;;4972392;28;20446;-51
2022/05/11 06:31:11;;;;;;;8.80;3.15;;;15.00;99.90;;;;;;4971435;28;20046;-50
2022/05/11 06:33:37;;;;;;;12.25;3.00;;;15.00;99.90;;;;;;4972162;28;20469;-51
2022/05/11 06:36:05;;;;;;;8.05;2.70;;;15.10;99.90;;;;;;4971979;28;20074;-48
2022/05/11 06:38:30;;;;;;;8.98;2.65;;;15.20;99.90;;;;;;4971901;28;20501;-48
2022/05/11 06:40:56;;;;;;;11.27;2.42;;;15.20;99.90;;;;;;4971699;28;20125;-52
2022/05/11 06:43:24;;;;;;;6.10;1.77;;;15.30;99.90;;;;;;4971873;28;20043;-48
2022/05/11 06:45:50;;;;;;;11.02;1.92;;;15.40;99.90;;;;;;4971370;28;20410;-49
2022/05/11 06:48:16;;;;;;;8.95;1.80;;;15.40;99.90;;;;;;4971873;28;20042;-49
2022/05/11 06:50:42;;;;;;;6.32;1.58;;;15.40;99.90;;;;;;4970593;28;20494;-46
2022/05/11 06:53:11;;;;;;;5.90;1.40;;;15.40;99.90;;;;;;4971675;28;20149;-49
2022/05/11 07:01:08;;;;;;;7.55;1.50;;;15.70;99.90;;;;;;4970390;28;20558;-50
2022/05/11 07:03:33;;;;;;;6.35;1.40;;;15.70;99.90;;;;;;4970898;28;20043;-50
2022/05/11 07:05:59;;;;;;;5.82;1.73;;;15.70;99.90;;;;;;4970661;28;20051;-49
2022/05/11 07:08:36;;;;;;;7.10;1.42;;;15.80;99.90;;;;;;4969076;28;20049;-48
2022/05/11 07:13:46;;;;;;;;;;;15.90;99.90;;;;;;4970311;28;20049;-48
2022/05/11 07:16:13;;;;;;;11.85;2.05;;;16.00;99.90;;;;;;4970242;28;19918;-48
2022/05/11 07:18:39;;;;;;;6.50;1.40;;;15.90;99.90;;;;;;4970104;28;20046;-50
2022/05/11 07:21:05;;;;;;;5.03;1.20;;;16.00;99.90;;;;;;4970555;28;20039;-49
2022/05/11 07:23:31;;;;;;;9.45;1.80;;;16.00;99.90;;;;;;4969464;28;20043;-48
2022/05/11 07:25:57;;;;;;;8.63;1.92;;;16.00;99.90;;;;;;4970625;28;20126;-50
2022/05/11 07:28:23;;;;;;;6.97;1.52;;;16.00;99.90;;;;;;4968782;28;20133;-46
2022/05/11 07:30:48;;;;;;;9.35;1.50;;;16.10;99.90;;;;;;4970135;28;20082;-51
2022/05/11 07:33:15;;;;;;;8.85;1.27;;;16.10;99.90;;;;;;4969665;28;20091;-49
2022/05/11 07:35:43;;;;;;;12.80;1.77;;;16.10;99.90;;;;;;4970495;28;20039;-51
2022/05/11 07:38:10;;;;;;;7.97;1.50;;;16.10;99.90;;;;;;4970030;28;20035;-49
2022/05/11 07:40:36;;;;;;;9.13;1.63;;;16.10;99.90;;;;;;4970107;28;20046;-49
2022/05/11 07:43:02;;;;;;;6.93;1.60;;;16.20;99.90;;;;;;4971767;28;20041;-51
2022/05/11 07:45:28;;;;;;;6.20;1.50;;;16.30;99.90;;;;;;4973795;28;20097;-50
2022/05/11 07:47:53;;;;;;;7.43;1.70;;;16.20;99.90;;;;;;4969005;28;20495;-50
2022/05/11 07:50:19;;;;;;;8.55;1.80;;;16.20;99.90;;;;;;4969503;28;20038;-48
2022/05/11 07:52:46;;;;;;;9.32;1.85;;;16.30;99.90;;;;;;4972881;28;20093;-49
2022/05/11 07:55:14;;;;;;;8.70;1.70;;;16.60;99.90;;;;;;4973664;28;20031;-47
2022/05/11 08:00:25;;;;;;;9.45;1.65;;;16.70;99.90;;;;;;4974312;28;20129;-50
2022/05/11 08:02:52;;;;;;;8.10;1.30;;;16.70;99.90;;;;;;4974410;28;20102;-48
2022/05/11 08:05:19;;;;;;;9.60;1.52;;;16.70;99.90;;;;;;4973778;28;20479;-51
2022/05/11 08:07:55;;;;;;;11.07;1.73;;;16.80;99.90;;;;;;4974319;28;20034;-52
2022/05/11 08:10:23;;;;;;;13.80;2.08;;;16.90;99.90;;;;;;4970415;28;20109;-52
2022/05/11 08:12:49;;;;;;;8.50;1.55;;;16.80;99.90;;;;;;4972993;28;20427;-49
2022/05/11 08:15:17;;;;;;;10.73;1.85;;;16.80;99.90;;;;;;4973986;28;20050;-48
2022/05/11 08:17:46;;;;;;;8.50;1.65;;;16.70;99.90;;;;;;4973850;28;20375;-51
2022/05/11 08:20:25;;;;;;;9.25;1.55;;;16.70;99.90;;;;;;4972436;28;20046;-47
2022/05/11 08:22:52;;;;;;;11.88;2.25;;;16.90;99.90;;;;;;4973476;28;20034;-49
2022/05/11 08:25:20;;;;;;;8.32;1.60;;;17.00;99.90;;;;;;4973523;28;20446;-51
2022/05/11 08:27:47;;;;;;;10.10;1.63;;;17.10;99.90;;;;;;4972757;28;20070;-50
2022/05/11 08:36:16;;;;;;;10.93;1.73;;;17.40;99.90;;;;;;4951489;29;20098;-50
2022/05/11 08:38:46;;;;;;;13.25;1.63;;;17.80;99.90;;;;;;4968711;28;21014;-49
2022/05/11 08:41:26;;;;;;;7.97;1.75;;;17.70;99.90;;;;;;4972035;28;20131;-48
2022/05/11 08:43:56;;;;;;;11.73;1.52;;;17.60;99.90;;;;;;4970491;28;20549;-47
2022/05/11 08:46:43;;;;;;;8.43;1.60;;;17.60;99.90;;;;;;4972214;28;20055;-51
2022/05/11 08:49:21;;;;;;;15.98;1.60;;;17.40;99.90;;;;;;4972353;28;20050;-47
2022/05/11 08:52:00;;;;;;;14.73;1.73;;;17.30;99.90;;;;;;4972368;28;20051;-48
2022/05/11 08:54:39;;;;;;;23.52;3.25;;;17.40;99.90;;;;;;4972303;28;20089;-48
2022/05/11 08:57:11;;;;;;;9.30;1.63;;;17.40;99.90;;;;;;4972214;28;20042;-50
2022/05/11 08:59:38;;;;;;;7.88;1.65;;;17.40;99.90;;;;;;4973135;28;20039;-51
2022/05/11 09:02:14;;;;;;;7.72;1.42;;;17.40;99.90;;;;;;4953494;28;20377;-49
2022/05/11 09:04:47;;;;;;;15.52;2.00;;;17.50;99.90;;;;;;4972478;28;20125;-47
2022/05/11 09:07:13;;;;;;;9.48;1.20;;;17.70;99.90;;;;;;4972911;28;20039;-49
2022/05/11 09:09:39;;;;;;;15.43;2.10;;;17.80;99.90;;;;;;4972967;28;20126;-47
2022/05/11 09:12:06;;;;;;;11.13;1.58;;;17.90;99.90;;;;;;4972852;28;20074;-49
2022/05/11 09:14:41;;;;;;;7.75;1.42;;;18.20;99.90;;;;;;4972435;28;20474;-52
2022/05/11 09:17:25;;;;;;;5.18;1.35;;;18.00;99.90;;;;;;4972673;28;20042;-50
2022/05/11 09:20:18;;;;;;;10.23;1.65;;;18.10;99.90;;;;;;4971623;28;20121;-47
2022/05/11 09:22:58;;;;;;;7.47;1.10;;;18.00;99.90;;;;;;4972278;28;20046;-50
2022/05/11 09:25:31;;;;;;;7.88;1.50;;;18.00;99.90;;;;;;4971959;28;20078;-49
2022/05/11 09:28:15;;;;;;;8.27;1.45;;;18.20;99.90;;;;;;4972099;28;20070;-51
2022/05/11 09:31:00;;;;;;;9.38;1.50;;;18.50;99.90;;;;;;4976353;28;20046;-51
2022/05/11 09:33:29;;;;;;;6.65;1.20;;;18.60;99.90;;;;;;4971719;28;20038;-47
2022/05/11 09:35:55;;;;;;;9.60;1.00;;;19.00;99.90;;;;;;4955083;28;20107;-49
2022/05/11 09:38:21;;;;;;;3.47;1.20;;;19.50;99.90;;;;;;4970830;28;20052;-48
2022/05/11 09:41:00;;;;;;;7.45;1.65;;;19.50;99.90;;;;;;4972119;28;20046;-48
2022/05/11 09:43:31;;;;;;;23.63;2.35;;;19.50;99.90;;;;;;4971555;28;20042;-49
2022/05/11 09:45:56;;;;;;;6.50;1.20;;;19.40;99.90;;;;;;4972095;28;20501;-48
2022/05/11 09:48:28;;;;;;;8.30;1.40;;;19.50;99.90;;;;;;4972411;28;20046;-49
2022/05/11 09:50:56;;;;;;;8.15;1.27;;;19.60;99.80;;;;;;4969537;28;20055;-50
2022/05/11 09:53:39;;;;;;;5.20;1.08;;;19.70;99.60;;;;;;4972473;28;20221;-49
2022/05/11 09:56:16;;;;;;;8.70;1.10;;;19.80;99.90;;;;;;4955143;28;20093;-50
2022/05/11 09:58:42;;;;;;;8.50;1.10;;;19.70;99.40;;;;;;4970976;28;20039;-51
2022/05/11 10:01:14;;;;;;;7.65;0.90;;;19.60;99.30;;;;;;4936112;28;20122;-49
2022/05/11 10:03:51;;;;;;;11.35;1.38;;;19.80;99.00;;;;;;4970526;28;20043;-47
2022/05/11 10:06:18;;;;;;;4.47;0.80;;;19.70;97.90;;;;;;4970870;28;20113;-47
2022/05/11 10:08:45;;;;;;;7.32;0.98;;;20.00;99.00;;;;;;4970994;28;20069;-47
2022/05/11 10:11:22;;;;;;;14.48;1.65;;;19.90;98.50;;;;;;4953100;28;20049;-47
2022/05/11 10:22:32;;;;;;;;;;;19.50;99.90;;;;;;4972570;28;20053;-52
2022/05/11 10:25:13;;;;;;;8.75;1.42;;;19.70;99.90;;;;;;4972265;28;19918;-51
2022/05/11 10:28:09;;;;;;;7.85;1.45;;;19.90;99.90;;;;;;4972387;28;20045;-48
2022/05/11 10:31:05;;;;;;;8.30;1.38;;;20.00;99.90;;;;;;4972097;28;20046;-49
2022/05/11 10:33:57;;;;;;;13.02;2.03;;;20.30;99.70;;;;;;4966600;28;20053;-49
2022/05/11 10:36:44;;;;;;;9.45;2.22;;;20.20;99.90;;;;;;4972093;28;20105;-52
2022/05/11 10:39:34;;;;;;;13.65;1.52;;;20.00;99.90;;;;;;4971933;28;20047;-48
2022/05/11 10:42:23;;;;;;;10.85;1.60;;;20.00;99.90;;;;;;4972252;28;20494;-49
2022/05/11 10:44:58;;;;;;;9.38;1.70;;;19.90;99.90;;;;;;4971556;28;20047;-51
2022/05/11 10:48:01;;;;;;;13.75;2.40;;;19.80;99.90;;;;;;4971542;28;20058;-50
2022/05/11 10:51:04;;;;;;;9.65;2.25;;;20.00;99.90;;;;;;4971917;28;20055;-46
2022/05/11 10:53:49;;;;;;;8.60;1.65;;;20.10;99.90;;;;;;4971336;28;20046;-46
2022/05/11 10:56:33;;;;;;;10.57;1.60;;;19.90;99.90;;;;;;4965165;28;20067;-49
2022/05/11 10:59:24;;;;;;;8.70;1.50;;;20.20;99.90;;;;;;4962944;28;20050;-48
2022/05/11 11:02:27;;;;;;;8.48;1.52;;;20.00;99.90;;;;;;4964752;28;20302;-50
2022/05/11 11:05:10;;;;;;;7.20;1.90;;;20.10;99.90;;;;;;4971104;28;20054;-48
2022/05/11 11:07:41;;;;;;;11.15;1.83;;;20.00;99.90;;;;;;4965243;28;20047;-50
2022/05/11 11:10:33;;;;;;;9.60;1.80;;;20.50;99.90;;;;;;4969647;28;20038;-51
2022/05/11 11:13:14;;;;;;;13.77;2.03;;;20.60;99.90;;;;;;4970606;28;20122;-47
2022/05/11 11:15:44;;;;;;;11.40;1.77;;;20.50;99.90;;;;;;4971418;28;20385;-49
2022/05/11 11:18:12;;;;;;;11.55;1.95;;;20.60;99.90;;;;;;4973296;28;21069;-48
2022/05/11 11:20:42;;;;;;;11.48;2.25;;;20.40;99.90;;;;;;4973604;28;20035;-49
2022/05/11 11:23:14;;;;;;;14.30;2.00;;;20.50;99.90;;;;;;4974117;28;20047;-48
2022/05/11 11:26:02;;;;;;;10.15;1.70;;;20.60;99.90;;;;;;4971250;28;20367;-49
2022/05/11 11:28:31;;;;;;;12.25;1.90;;;20.50;99.90;;;;;;4971400;28;20468;-48
2022/05/11 11:30:59;;;;;;;11.07;1.80;;;21.00;99.90;;;;;;4972824;28;20524;-47
2022/05/11 11:33:34;;;;;;;11.20;1.58;;;21.10;99.90;;;;;;4974227;28;20035;-53
2022/05/11 11:36:03;;;;;;;11.50;1.88;;;21.10;99.90;;;;;;4974769;28;20534;-51
2022/05/11 11:38:45;;;;;;;9.75;1.85;;;21.00;99.90;;;;;;4965877;28;20043;-49
2022/05/11 11:41:24;;;;;;;9.23;1.60;;;20.80;99.70;;;;;;4974731;28;20038;-51
2022/05/11 11:44:30;;;;;;;14.10;2.10;;;21.00;99.90;;;;;;4974609;28;20038;-47
2022/05/11 11:46:57;;;;;;;8.90;2.00;;;21.20;99.90;;;;;;4952293;28;20103;-53
2022/05/11 11:49:27;;;;;;;10.85;1.75;;;21.40;99.70;;;;;;4975052;28;20125;-50
2022/05/11 11:51:58;;;;;;;8.05;1.75;;;21.40;99.70;;;;;;4974540;28;20053;-49
2022/05/11 11:54:31;;;;;;;10.65;1.52;;;21.40;98.90;;;;;;4975053;28;20208;-52
2022/05/11 11:56:59;;;;;;;7.93;1.70;;;21.60;99.10;;;;;;4973968;28;20073;-52
2022/05/11 11:59:24;;;;;;;9.48;2.00;;;21.40;98.30;;;;;;4974930;28;20039;-51
2022/05/11 12:02:14;;;;;;;7.13;1.67;;;21.70;98.90;;;;;;4974831;28;20408;-50
2022/05/11 12:04:55;;;;;;;9.48;1.45;;;21.90;97.60;;;;;;4975086;28;20047;-51
2022/05/11 12:15:46;;;;;;;14.70;1.90;;;22.20;96.80;;;;;;4974596;28;20047;-51
2022/05/11 12:18:28;;;;;;;9.82;1.88;;;22.00;96.50;;;;;;4974389;28;20118;-52
2022/05/11 12:20:55;;;;;;;12.65;1.88;;;22.10;96.50;;;;;;4974253;28;20050;-52
2022/05/11 12:23:36;;;;;;;8.02;1.80;;;21.60;95.70;;;;;;4973765;28;21311;-50
2022/05/11 12:26:10;;;;;;;10.80;1.48;;;21.90;96.60;;;;;;4974169;28;20042;-47
2022/05/11 12:28:44;;;;;;;10.73;2.30;;;22.10;96.70;;;;;;4973093;28;20041;-49
2022/05/11 12:31:25;;;;;;;8.10;1.65;;;22.30;96.60;;;;;;4974091;28;20037;-53
2022/05/11 12:33:54;;;;;;;7.05;1.60;;;22.50;97.00;;;;;;4974379;28;20039;-47
2022/05/11 12:36:33;;;;;;;9.90;1.50;;;22.10;96.10;;;;;;4974112;28;20039;-49
2022/05/11 12:39:00;;;;;;;13.50;1.75;;;22.40;96.70;;;;;;4973925;28;20046;-50
2022/05/11 12:41:27;;;;;;;9.30;1.60;;;22.40;96.90;;;;;;4974001;28;20137;-47
2022/05/11 12:44:04;;;;;;;6.13;1.40;;;22.40;96.70;;;;;;4973635;28;20050;-49
2022/05/11 12:46:33;;;;;;;9.23;1.73;;;22.50;96.80;;;;;;4970453;28;20499;-50
2022/05/11 12:49:01;;;;;;;8.30;1.45;;;22.50;96.40;;;;;;4973788;28;20475;-50
2022/05/11 12:51:40;;;;;;;8.57;1.75;;;22.80;95.40;;;;;;4973880;28;20475;-48
2022/05/11 12:54:09;;;;;;;11.07;1.85;;;23.30;95.40;;;;;;4973638;28;20038;-49
2022/05/11 12:56:41;;;;;;;13.15;1.98;;;22.80;95.20;;;;;;4973695;28;20082;-47
2022/05/11 12:59:21;;;;;;;10.02;1.92;;;22.30;96.10;;;;;;4973640;28;20043;-49
2022/05/11 13:01:47;;;;;;;11.30;1.85;;;22.50;96.80;;;;;;4973771;28;20039;-48
2022/05/11 13:04:21;;;;;;;7.22;1.50;;;22.50;96.20;;;;;;4973556;28;20050;-50
2022/05/11 13:06:50;;;;;;;8.90;1.88;;;22.70;96.10;;;;;;4973217;28;20038;-49
2022/05/11 13:09:19;;;;;;;10.75;2.00;;;23.00;95.70;;;;;;4973768;28;20118;-51
2022/05/11 13:11:46;;;;;;;9.90;2.08;;;23.10;96.40;;;;;;4973468;28;20047;-48
2022/05/11 13:14:16;;;;;;;12.15;2.30;;;22.50;95.70;;;;;;4973180;28;20034;-51
2022/05/11 13:16:51;;;;;;;9.93;2.30;;;22.50;96.50;;;;;;4973461;28;20066;-49
2022/05/11 13:19:29;;;;;;;13.88;2.22;;;22.50;96.50;;;;;;4973227;28;20035;-49
2022/05/11 13:21:58;;;;;;;12.15;2.30;;;22.70;95.30;;;;;;4973200;28;20269;-48
2022/05/11 13:24:48;;;;;;;14.80;2.03;;;22.50;96.20;;;;;;4953988;28;20039;-51
2022/05/11 13:27:24;;;;;;;12.40;1.90;;;22.30;95.90;;;;;;4972255;28;20042;-50
2022/05/11 13:30:09;;;;;;;15.75;2.15;;;22.90;95.80;;;;;;4972939;28;20093;-52
2022/05/11 13:32:48;;;;;;;14.02;2.20;;;22.80;95.90;;;;;;4973011;28;20046;-48
2022/05/11 13:35:38;;;;;;;10.55;2.00;;;22.40;96.30;;;;;;4972961;28;20502;-50
2022/05/11 13:38:09;;;;;;;10.45;1.60;;;22.30;96.30;;;;;;4972772;28;20427;-51
2022/05/11 13:41:03;;;;;;;10.82;2.30;;;22.20;96.70;;;;;;4973070;28;20406;-49
2022/05/11 13:43:31;;;;;;;12.35;1.85;;;22.70;96.40;;;;;;4971784;28;20131;-47
2022/05/11 13:46:04;;;;;;;14.80;1.83;;;22.80;96.10;;;;;;4972811;28;20050;-48
2022/05/11 13:48:37;;;;;;;12.73;2.17;;;22.80;95.10;;;;;;4972598;28;20487;-47
2022/05/11 13:51:25;;;;;;;13.20;2.20;;;22.60;95.90;;;;;;4972846;28;20041;-51
2022/05/11 13:54:16;;;;;;;8.98;2.08;;;23.00;95.10;;;;;;4972420;28;20038;-48
2022/05/11 13:56:56;;;;;;;10.90;1.83;;;22.90;93.60;;;;;;4972376;28;20186;-50
2022/05/11 13:59:24;;;;;;;10.85;1.95;;;23.50;94.30;;;;;;4973023;28;20031;-48
2022/05/11 14:01:50;;;;;;;15.10;2.30;;;23.40;94.00;;;;;;4972634;28;20387;-47
2022/05/11 14:04:31;;;;;;;11.18;1.77;;;23.50;93.70;;;;;;4972870;28;20034;-48
2022/05/11 14:07:32;;;;;;;11.90;1.77;;;24.00;93.40;;;;;;4972482;28;20062;-49
2022/05/11 14:09:58;;;;;;;10.90;1.48;;;23.10;91.40;;;;;;4970236;28;20490;-50
2022/05/11 14:12:24;;;;;;;9.27;1.50;;;22.80;92.70;;;;;;4972241;28;20580;-51
2022/05/11 14:14:50;;;;;;;8.95;1.60;;;23.20;92.70;;;;;;4971863;28;20483;-50
2022/05/11 14:17:26;;;;;;;13.57;1.88;;;23.20;92.30;;;;;;4971839;28;20046;-51
2022/05/11 14:19:57;;;;;;;11.18;1.40;;;23.00;92.60;;;;;;4972327;28;20390;-50
2022/05/11 14:22:23;;;;;;;9.65;1.08;;;22.20;92.90;;;;;;4955136;28;20046;-48
2022/05/11 14:24:49;;;;;;;13.52;1.73;;;21.90;93.50;;;;;;4972267;28;20046;-49
2022/05/11 14:27:18;;;;;;;18.98;1.50;;;22.00;94.20;;;;;;4972175;28;20500;-51
2022/05/11 14:29:48;;;;;;;14.45;1.70;;;22.20;94.20;;;;;;4955442;28;20383;-46